sensor_id;sensor_type;location;lat;lon;timestamp;pressure;altitude;pressure_sealevel;temperature;humidity
53262;BME280;39658;51.090;-1.786;2023-06-22T00:00:11;101527.06;;;13.67;100.00
53262;BME280;39658;51.090;-1.786;2023-06-22T00:02:38;101525.81;;;13.60;100.00
53262;BME280;39658;51.090;-1.786;2023-06-22T00:05:05;101522.72;;;13.53;100.00
53262;BME280;39658;51.090;-1.786;2023-06-22T00:07:32;101516.84;;;13.48;100.00
53262;BME280;39658;51.090;-1.786;2023-06-22T00:09:59;101509.09;;;13.45;100.00
53262;BME280;39658;51.090;-1.786;2023-06-22T00:12:26;101516.31;;;13.43;100.00
53262;BME280;39658;51.090;-1.786;2023-06-22T00:14:52;101505.91;;;13.40;100.00
53262;BME280;39658;51.090;-1.786;2023-06-22T00:17:21;101507.06;;;13.36;100.00
53262;BME280;39658;51.090;-1.786;2023-06-22T00:19:48;101501.94;;;13.33;100.00
53262;BME280;39658;51.090;-1.786;2023-06-22T00:22:18;101499.56;;;13.28;100.00
53262;BME280;39658;51.090;-1.786;2023-06-22T00:24:47;101509.44;;;13.26;100.00
53262;BME280;39658;51.090;-1.786;2023-06-22T00:27:13;101513.00;;;13.25;100.00
53262;BME280;39658;51.090;-1.786;2023-06-22T00:29:40;101499.78;;;13.25;100.00
53262;BME280;39658;51.090;-1.786;2023-06-22T00:32:07;101494.56;;;13.23;100.00
53262;BME280;39658;51.090;-1.786;2023-06-22T00:34:35;101481.63;;;13.19;100.00
53262;BME280;39658;51.090;-1.786;2023-06-22T00:37:03;101499.53;;;13.15;100.00
53262;BME280;39658;51.090;-1.786;2023-06-22T00:39:29;101497.19;;;13.10;100.00
53262;BME280;39658;51.090;-1.786;2023-06-22T00:41:59;101493.22;;;13.03;100.00
53262;BME280;39658;51.090;-1.786;2023-06-22T00:44:26;101489.38;;;12.95;100.00
53262;BME280;39658;51.090;-1.786;2023-06-22T00:46:53;101483.50;;;12.89;100.00
53262;BME280;39658;51.090;-1.786;2023-06-22T00:49:20;101480.31;;;12.84;100.00
53262;BME280;39658;51.090;-1.786;2023-06-22T00:51:48;101481.25;;;12.83;100.00
53262;BME280;39658;51.090;-1.786;2023-06-22T00:54:15;101484.97;;;12.81;100.00
53262;BME280;39658;51.090;-1.786;2023-06-22T00:56:46;101492.16;;;12.79;100.00
53262;BME280;39658;51.090;-1.786;2023-06-22T00:59:13;101580.31;;;12.79;100.00
53262;BME280;39658;51.090;-1.786;2023-06-22T01:01:42;101581.34;;;12.77;100.00
53262;BME280;39658;51.090;-1.786;2023-06-22T01:04:09;101584.38;;;12.70;100.00
53262;BME280;39658;51.090;-1.786;2023-06-22T01:06:41;101585.72;;;12.63;100.00
53262;BME280;39658;51.090;-1.786;2023-06-22T01:09:15;101586.00;;;12.59;100.00
53262;BME280;39658;51.090;-1.786;2023-06-22T01:11:51;101592.22;;;12.57;100.00
53262;BME280;39658;51.090;-1.786;2023-06-22T01:14:23;101589.66;;;12.56;100.00
53262;BME280;39658;51.090;-1.786;2023-06-22T01:16:51;101592.97;;;12.60;100.00
53262;BME280;39658;51.090;-1.786;2023-06-22T01:19:38;101589.47;;;12.59;100.00
53262;BME280;39658;51.090;-1.786;2023-06-22T01:22:08;101595.59;;;12.60;100.00
53262;BME280;39658;51.090;-1.786;2023-06-22T01:24:51;101593.75;;;12.62;100.00
53262;BME280;39658;51.090;-1.786;2023-06-22T01:27:32;101592.88;;;12.61;100.00
53262;BME280;39658;51.090;-1.786;2023-06-22T01:30:05;101598.34;;;12.58;100.00
53262;BME280;39658;51.090;-1.786;2023-06-22T01:32:34;101590.59;;;12.55;100.00
53262;BME280;39658;51.090;-1.786;2023-06-22T01:35:05;101579.44;;;12.50;100.00
53262;BME280;39658;51.090;-1.786;2023-06-22T01:37:34;101581.06;;;12.52;100.00
53262;BME280;39658;51.090;-1.786;2023-06-22T01:40:02;101582.09;;;12.50;100.00
53262;BME280;39658;51.090;-1.786;2023-06-22T01:42:31;101585.84;;;12.46;100.00
53262;BME280;39658;51.090;-1.786;2023-06-22T01:44:59;101584.38;;;12.42;100.00
53262;BME280;39658;51.090;-1.786;2023-06-22T01:47:28;101583.84;;;12.35;100.00
53262;BME280;39658;51.090;-1.786;2023-06-22T01:49:55;101591.88;;;12.33;100.00
53262;BME280;39658;51.090;-1.786;2023-06-22T01:52:22;101590.38;;;12.29;100.00
53262;BME280;39658;51.090;-1.786;2023-06-22T01:54:49;101589.59;;;12.27;100.00
53262;BME280;39658;51.090;-1.786;2023-06-22T01:57:16;101599.34;;;12.27;100.00
53262;BME280;39658;51.090;-1.786;2023-06-22T01:59:48;101595.25;;;12.21;100.00
53262;BME280;39658;51.090;-1.786;2023-06-22T02:02:19;101593.66;;;12.18;100.00
53262;BME280;39658;51.090;-1.786;2023-06-22T02:04:56;101597.41;;;12.14;100.00
53262;BME280;39658;51.090;-1.786;2023-06-22T02:07:28;101594.28;;;12.08;100.00
53262;BME280;39658;51.090;-1.786;2023-06-22T02:09:58;101596.53;;;11.99;100.00
53262;BME280;39658;51.090;-1.786;2023-06-22T02:12:26;101598.66;;;11.93;100.00
53262;BME280;39658;51.090;-1.786;2023-06-22T02:14:55;101598.81;;;11.90;100.00
53262;BME280;39658;51.090;-1.786;2023-06-22T02:17:25;101595.50;;;11.86;100.00
53262;BME280;39658;51.090;-1.786;2023-06-22T02:19:53;101595.66;;;11.83;100.00
53262;BME280;39658;51.090;-1.786;2023-06-22T02:22:20;101594.91;;;11.81;100.00
53262;BME280;39658;51.090;-1.786;2023-06-22T02:24:47;101599.25;;;11.82;100.00
53262;BME280;39658;51.090;-1.786;2023-06-22T02:27:14;101598.88;;;11.88;100.00
53262;BME280;39658;51.090;-1.786;2023-06-22T02:29:40;101604.81;;;11.93;100.00
53262;BME280;39658;51.090;-1.786;2023-06-22T02:32:07;101603.75;;;11.96;100.00
53262;BME280;39658;51.090;-1.786;2023-06-22T02:34:34;101599.34;;;11.96;100.00
53262;BME280;39658;51.090;-1.786;2023-06-22T02:37:03;101600.09;;;11.98;100.00
53262;BME280;39658;51.090;-1.786;2023-06-22T02:39:30;101595.56;;;12.00;100.00
53262;BME280;39658;51.090;-1.786;2023-06-22T02:41:57;101606.16;;;12.00;100.00
53262;BME280;39658;51.090;-1.786;2023-06-22T02:44:24;101601.72;;;12.01;100.00
53262;BME280;39658;51.090;-1.786;2023-06-22T02:46:51;101606.94;;;12.02;100.00
53262;BME280;39658;51.090;-1.786;2023-06-22T02:49:19;101597.09;;;12.05;100.00
53262;BME280;39658;51.090;-1.786;2023-06-22T02:51:47;101594.56;;;12.03;100.00
53262;BME280;39658;51.090;-1.786;2023-06-22T02:54:16;101597.19;;;12.03;100.00
53262;BME280;39658;51.090;-1.786;2023-06-22T02:56:43;101592.09;;;12.00;100.00
53262;BME280;39658;51.090;-1.786;2023-06-22T02:59:10;101590.28;;;12.00;100.00
53262;BME280;39658;51.090;-1.786;2023-06-22T03:01:37;101591.34;;;11.98;100.00
53262;BME280;39658;51.090;-1.786;2023-06-22T03:04:05;101584.25;;;11.98;100.00
53262;BME280;39658;51.090;-1.786;2023-06-22T03:06:32;101584.44;;;11.95;100.00
53262;BME280;39658;51.090;-1.786;2023-06-22T03:09:00;101589.63;;;11.97;100.00
53262;BME280;39658;51.090;-1.786;2023-06-22T03:11:30;101580.84;;;11.96;100.00
53262;BME280;39658;51.090;-1.786;2023-06-22T03:13:57;101580.06;;;11.94;100.00
53262;BME280;39658;51.090;-1.786;2023-06-22T03:16:24;101571.53;;;11.89;100.00
53262;BME280;39658;51.090;-1.786;2023-06-22T03:18:51;101574.25;;;11.88;100.00
53262;BME280;39658;51.090;-1.786;2023-06-22T03:21:19;101568.97;;;11.88;100.00
53262;BME280;39658;51.090;-1.786;2023-06-22T03:23:45;101572.72;;;11.83;100.00
53262;BME280;39658;51.090;-1.786;2023-06-22T03:26:12;101573.78;;;11.81;100.00
53262;BME280;39658;51.090;-1.786;2023-06-22T03:28:40;101574.13;;;11.75;100.00
53262;BME280;39658;51.090;-1.786;2023-06-22T03:31:08;101571.75;;;11.70;100.00
53262;BME280;39658;51.090;-1.786;2023-06-22T03:33:34;101567.66;;;11.64;100.00
53262;BME280;39658;51.090;-1.786;2023-06-22T03:36:01;101558.38;;;11.57;100.00
53262;BME280;39658;51.090;-1.786;2023-06-22T03:38:28;101554.75;;;11.44;100.00
53262;BME280;39658;51.090;-1.786;2023-06-22T03:40:55;101557.09;;;11.32;100.00
53262;BME280;39658;51.090;-1.786;2023-06-22T03:43:23;101558.50;;;11.24;100.00
53262;BME280;39658;51.090;-1.786;2023-06-22T03:45:51;101549.66;;;11.25;100.00
53262;BME280;39658;51.090;-1.786;2023-06-22T03:48:18;101563.09;;;11.20;100.00
53262;BME280;39658;51.090;-1.786;2023-06-22T03:50:44;101559.59;;;11.20;100.00
53262;BME280;39658;51.090;-1.786;2023-06-22T03:53:11;101564.19;;;11.16;100.00
53262;BME280;39658;51.090;-1.786;2023-06-22T03:55:48;101563.28;;;11.17;100.00
53262;BME280;39658;51.090;-1.786;2023-06-22T03:58:15;101568.47;;;11.19;100.00
53262;BME280;39658;51.090;-1.786;2023-06-22T04:00:44;101569.31;;;11.19;100.00
53262;BME280;39658;51.090;-1.786;2023-06-22T04:03:12;101571.03;;;11.20;100.00
53262;BME280;39658;51.090;-1.786;2023-06-22T04:05:40;101576.88;;;11.25;100.00
53262;BME280;39658;51.090;-1.786;2023-06-22T04:08:06;101577.66;;;11.27;100.00
53262;BME280;39658;51.090;-1.786;2023-06-22T04:10:34;101581.81;;;11.31;100.00
53262;BME280;39658;51.090;-1.786;2023-06-22T04:13:00;101567.66;;;11.32;100.00
53262;BME280;39658;51.090;-1.786;2023-06-22T04:15:27;101577.13;;;11.37;100.00
53262;BME280;39658;51.090;-1.786;2023-06-22T04:17:54;101576.13;;;11.39;100.00
53262;BME280;39658;51.090;-1.786;2023-06-22T04:20:23;101581.31;;;11.41;100.00
53262;BME280;39658;51.090;-1.786;2023-06-22T04:22:51;101582.81;;;11.45;100.00
53262;BME280;39658;51.090;-1.786;2023-06-22T04:25:18;101564.25;;;11.46;100.00
53262;BME280;39658;51.090;-1.786;2023-06-22T04:27:45;101581.88;;;11.62;100.00
53262;BME280;39658;51.090;-1.786;2023-06-22T04:30:12;101573.69;;;11.66;100.00
53262;BME280;39658;51.090;-1.786;2023-06-22T04:32:41;101575.50;;;11.66;100.00
53262;BME280;39658;51.090;-1.786;2023-06-22T04:35:09;101556.34;;;11.62;100.00
53262;BME280;39658;51.090;-1.786;2023-06-22T04:37:37;101563.66;;;11.73;100.00
53262;BME280;39658;51.090;-1.786;2023-06-22T04:40:06;101571.88;;;11.83;100.00
53262;BME280;39658;51.090;-1.786;2023-06-22T04:42:34;101568.22;;;11.85;100.00
53262;BME280;39658;51.090;-1.786;2023-06-22T04:45:01;101566.34;;;11.88;100.00
53262;BME280;39658;51.090;-1.786;2023-06-22T04:47:28;101575.81;;;11.92;100.00
53262;BME280;39658;51.090;-1.786;2023-06-22T04:49:55;101574.03;;;11.92;100.00
53262;BME280;39658;51.090;-1.786;2023-06-22T04:52:22;101578.31;;;11.95;100.00
53262;BME280;39658;51.090;-1.786;2023-06-22T04:54:51;101570.75;;;12.03;100.00
53262;BME280;39658;51.090;-1.786;2023-06-22T04:57:21;101578.59;;;12.05;100.00
53262;BME280;39658;51.090;-1.786;2023-06-22T04:59:58;101575.78;;;12.08;100.00
53262;BME280;39658;51.090;-1.786;2023-06-22T05:02:32;101584.38;;;12.11;100.00
53262;BME280;39658;51.090;-1.786;2023-06-22T05:04:59;101585.03;;;12.15;100.00
53262;BME280;39658;51.090;-1.786;2023-06-22T05:07:25;101576.84;;;12.19;100.00
53262;BME280;39658;51.090;-1.786;2023-06-22T05:09:54;101585.00;;;12.31;100.00
53262;BME280;39658;51.090;-1.786;2023-06-22T05:12:20;101579.91;;;12.28;100.00
53262;BME280;39658;51.090;-1.786;2023-06-22T05:14:47;101574.50;;;12.29;100.00
53262;BME280;39658;51.090;-1.786;2023-06-22T05:17:14;101576.88;;;12.34;100.00
53262;BME280;39658;51.090;-1.786;2023-06-22T05:19:44;101584.28;;;12.43;100.00
53262;BME280;39658;51.090;-1.786;2023-06-22T05:22:14;101571.97;;;12.42;100.00
53262;BME280;39658;51.090;-1.786;2023-06-22T05:24:41;101583.81;;;12.51;100.00
53262;BME280;39658;51.090;-1.786;2023-06-22T05:27:09;101579.72;;;12.60;100.00
53262;BME280;39658;51.090;-1.786;2023-06-22T05:29:36;101574.16;;;12.64;100.00
53262;BME280;39658;51.090;-1.786;2023-06-22T05:32:04;101584.00;;;12.77;100.00
53262;BME280;39658;51.090;-1.786;2023-06-22T05:34:31;101583.72;;;12.81;100.00
53262;BME280;39658;51.090;-1.786;2023-06-22T05:36:58;101579.16;;;12.83;100.00
53262;BME280;39658;51.090;-1.786;2023-06-22T05:39:25;101583.34;;;12.87;100.00
53262;BME280;39658;51.090;-1.786;2023-06-22T05:41:52;101587.69;;;12.88;100.00
53262;BME280;39658;51.090;-1.786;2023-06-22T05:44:20;101591.72;;;12.94;100.00
53262;BME280;39658;51.090;-1.786;2023-06-22T05:46:47;101594.00;;;13.00;100.00
53262;BME280;39658;51.090;-1.786;2023-06-22T05:49:14;101597.22;;;13.05;100.00
53262;BME280;39658;51.090;-1.786;2023-06-22T05:51:42;101600.97;;;13.16;100.00
53262;BME280;39658;51.090;-1.786;2023-06-22T05:54:08;101602.03;;;13.27;100.00
53262;BME280;39658;51.090;-1.786;2023-06-22T05:56:35;101609.88;;;13.29;100.00
53262;BME280;39658;51.090;-1.786;2023-06-22T05:59:04;101619.81;;;13.25;100.00
53262;BME280;39658;51.090;-1.786;2023-06-22T06:01:32;101623.94;;;13.29;100.00
53262;BME280;39658;51.090;-1.786;2023-06-22T06:04:01;101627.13;;;13.36;100.00
53262;BME280;39658;51.090;-1.786;2023-06-22T06:06:27;101626.41;;;13.33;100.00
53262;BME280;39658;51.090;-1.786;2023-06-22T06:08:54;101625.75;;;13.29;100.00
53262;BME280;39658;51.090;-1.786;2023-06-22T06:11:21;101622.91;;;13.32;100.00
53262;BME280;39658;51.090;-1.786;2023-06-22T06:13:48;101611.66;;;13.43;100.00
53262;BME280;39658;51.090;-1.786;2023-06-22T06:16:15;101605.59;;;13.55;100.00
53262;BME280;39658;51.090;-1.786;2023-06-22T06:18:43;101613.28;;;13.73;100.00
53262;BME280;39658;51.090;-1.786;2023-06-22T06:21:10;101608.13;;;13.84;100.00
53262;BME280;39658;51.090;-1.786;2023-06-22T06:23:37;101600.63;;;13.91;100.00
53262;BME280;39658;51.090;-1.786;2023-06-22T06:26:04;101610.75;;;13.98;100.00
53262;BME280;39658;51.090;-1.786;2023-06-22T06:28:32;101608.09;;;13.98;100.00
53262;BME280;39658;51.090;-1.786;2023-06-22T06:30:59;101605.97;;;14.04;100.00
53262;BME280;39658;51.090;-1.786;2023-06-22T06:33:26;101602.81;;;14.11;100.00
53262;BME280;39658;51.090;-1.786;2023-06-22T06:35:54;101605.28;;;14.27;100.00
53262;BME280;39658;51.090;-1.786;2023-06-22T06:38:21;101608.38;;;14.47;100.00
53262;BME280;39658;51.090;-1.786;2023-06-22T06:40:48;101604.81;;;14.61;100.00
53262;BME280;39658;51.090;-1.786;2023-06-22T06:43:15;101601.75;;;14.67;100.00
53262;BME280;39658;51.090;-1.786;2023-06-22T06:45:42;101604.81;;;14.74;100.00
53262;BME280;39658;51.090;-1.786;2023-06-22T06:48:09;101591.72;;;14.83;100.00
53262;BME280;39658;51.090;-1.786;2023-06-22T06:50:35;101596.50;;;14.91;100.00
53262;BME280;39658;51.090;-1.786;2023-06-22T06:53:04;101601.47;;;15.08;100.00
53262;BME280;39658;51.090;-1.786;2023-06-22T06:55:31;101609.44;;;15.08;100.00
53262;BME280;39658;51.090;-1.786;2023-06-22T06:57:59;101614.53;;;15.12;100.00
53262;BME280;39658;51.090;-1.786;2023-06-22T07:00:26;101614.41;;;15.13;100.00
53262;BME280;39658;51.090;-1.786;2023-06-22T07:02:53;101611.09;;;15.22;100.00
53262;BME280;39658;51.090;-1.786;2023-06-22T07:05:20;101619.06;;;15.35;100.00
53262;BME280;39658;51.090;-1.786;2023-06-22T07:07:46;101624.56;;;15.45;100.00
53262;BME280;39658;51.090;-1.786;2023-06-22T07:10:15;101626.44;;;15.56;100.00
53262;BME280;39658;51.090;-1.786;2023-06-22T07:12:42;101633.84;;;15.64;100.00
53262;BME280;39658;51.090;-1.786;2023-06-22T07:15:10;101642.00;;;15.73;100.00
53262;BME280;39658;51.090;-1.786;2023-06-22T07:17:38;101643.50;;;15.77;100.00
53262;BME280;39658;51.090;-1.786;2023-06-22T07:20:07;101651.06;;;15.95;100.00
53262;BME280;39658;51.090;-1.786;2023-06-22T07:22:37;101649.59;;;15.91;100.00
53262;BME280;39658;51.090;-1.786;2023-06-22T07:25:05;101657.00;;;15.98;100.00
53262;BME280;39658;51.090;-1.786;2023-06-22T07:27:36;101649.34;;;16.07;100.00
53262;BME280;39658;51.090;-1.786;2023-06-22T07:30:06;101650.03;;;16.33;100.00
53262;BME280;39658;51.090;-1.786;2023-06-22T07:32:33;101645.91;;;16.40;100.00
53262;BME280;39658;51.090;-1.786;2023-06-22T07:35:00;101655.38;;;16.44;100.00
53262;BME280;39658;51.090;-1.786;2023-06-22T07:37:28;101661.44;;;16.46;100.00
53262;BME280;39658;51.090;-1.786;2023-06-22T07:39:55;101673.91;;;16.57;100.00
53262;BME280;39658;51.090;-1.786;2023-06-22T07:42:24;101671.63;;;16.64;100.00
53262;BME280;39658;51.090;-1.786;2023-06-22T07:44:53;101671.91;;;16.72;100.00
53262;BME280;39658;51.090;-1.786;2023-06-22T07:47:19;101658.28;;;16.88;100.00
53262;BME280;39658;51.090;-1.786;2023-06-22T07:49:50;101668.56;;;16.93;100.00
53262;BME280;39658;51.090;-1.786;2023-06-22T07:52:17;101668.44;;;16.94;100.00
53262;BME280;39658;51.090;-1.786;2023-06-22T07:54:44;101679.09;;;17.05;100.00
53262;BME280;39658;51.090;-1.786;2023-06-22T07:57:11;101683.00;;;17.13;100.00
53262;BME280;39658;51.090;-1.786;2023-06-22T07:59:37;101691.09;;;17.22;100.00
53262;BME280;39658;51.090;-1.786;2023-06-22T08:02:06;101688.81;;;17.29;100.00
53262;BME280;39658;51.090;-1.786;2023-06-22T08:04:34;101701.28;;;17.40;100.00
53262;BME280;39658;51.090;-1.786;2023-06-22T08:07:01;101707.22;;;17.44;100.00
53262;BME280;39658;51.090;-1.786;2023-06-22T08:09:28;101727.94;;;17.51;100.00
53262;BME280;39658;51.090;-1.786;2023-06-22T08:11:55;101742.09;;;17.63;100.00
53262;BME280;39658;51.090;-1.786;2023-06-22T08:14:22;101757.75;;;17.68;100.00
53262;BME280;39658;51.090;-1.786;2023-06-22T08:16:49;101768.28;;;17.69;100.00
53262;BME280;39658;51.090;-1.786;2023-06-22T08:19:17;101786.97;;;17.81;100.00
53262;BME280;39658;51.090;-1.786;2023-06-22T08:21:44;101798.22;;;18.18;100.00
53262;BME280;39658;51.090;-1.786;2023-06-22T08:24:11;101822.16;;;18.41;100.00
53262;BME280;39658;51.090;-1.786;2023-06-22T08:26:38;101851.91;;;18.47;100.00
53262;BME280;39658;51.090;-1.786;2023-06-22T08:29:05;101872.72;;;18.65;100.00
53262;BME280;39658;51.090;-1.786;2023-06-22T08:31:32;101908.53;;;18.62;100.00
53262;BME280;39658;51.090;-1.786;2023-06-22T08:34:00;101925.66;;;18.71;100.00
53262;BME280;39658;51.090;-1.786;2023-06-22T08:36:28;101951.50;;;18.82;100.00
53262;BME280;39658;51.090;-1.786;2023-06-22T08:38:58;101969.97;;;19.29;100.00
53262;BME280;39658;51.090;-1.786;2023-06-22T08:41:28;101998.91;;;19.56;100.00
53262;BME280;39658;51.090;-1.786;2023-06-22T08:43:55;102007.81;;;19.99;100.00
53262;BME280;39658;51.090;-1.786;2023-06-22T08:46:23;102035.66;;;20.17;100.00
53262;BME280;39658;51.090;-1.786;2023-06-22T08:48:55;102081.81;;;20.52;100.00
53262;BME280;39658;51.090;-1.786;2023-06-22T08:51:23;102145.31;;;20.82;100.00
53262;BME280;39658;51.090;-1.786;2023-06-22T08:53:51;102169.41;;;21.13;100.00
53262;BME280;39658;51.090;-1.786;2023-06-22T08:56:18;102222.84;;;21.26;100.00
53262;BME280;39658;51.090;-1.786;2023-06-22T08:58:45;102223.94;;;21.54;100.00
53262;BME280;39658;51.090;-1.786;2023-06-22T09:01:12;102232.75;;;21.76;100.00
53262;BME280;39658;51.090;-1.786;2023-06-22T09:03:40;102283.09;;;21.83;100.00
53262;BME280;39658;51.090;-1.786;2023-06-22T09:06:07;102307.41;;;22.01;100.00
53262;BME280;39658;51.090;-1.786;2023-06-22T09:08:35;102327.03;;;22.33;100.00
53262;BME280;39658;51.090;-1.786;2023-06-22T09:11:03;102349.13;;;22.56;100.00
53262;BME280;39658;51.090;-1.786;2023-06-22T09:13:31;102373.75;;;22.51;100.00
53262;BME280;39658;51.090;-1.786;2023-06-22T09:15:58;102384.75;;;22.68;100.00
53262;BME280;39658;51.090;-1.786;2023-06-22T09:18:25;102372.88;;;22.90;100.00
53262;BME280;39658;51.090;-1.786;2023-06-22T09:20:52;102387.47;;;23.17;100.00
53262;BME280;39658;51.090;-1.786;2023-06-22T09:23:19;102399.31;;;23.34;100.00
53262;BME280;39658;51.090;-1.786;2023-06-22T09:25:45;102407.91;;;23.57;100.00
53262;BME280;39658;51.090;-1.786;2023-06-22T09:28:15;102422.69;;;23.53;100.00
53262;BME280;39658;51.090;-1.786;2023-06-22T09:30:43;102420.28;;;23.40;100.00
53262;BME280;39658;51.090;-1.786;2023-06-22T09:33:10;102404.63;;;23.63;100.00
53262;BME280;39658;51.090;-1.786;2023-06-22T09:35:36;102412.53;;;23.84;100.00
53262;BME280;39658;51.090;-1.786;2023-06-22T09:38:03;102411.50;;;23.95;100.00
53262;BME280;39658;51.090;-1.786;2023-06-22T09:40:30;102402.25;;;24.25;100.00
53262;BME280;39658;51.090;-1.786;2023-06-22T09:42:58;102397.41;;;24.57;100.00
53262;BME280;39658;51.090;-1.786;2023-06-22T09:45:26;102381.53;;;24.89;100.00
53262;BME280;39658;51.090;-1.786;2023-06-22T09:47:53;102405.16;;;25.32;100.00
53262;BME280;39658;51.090;-1.786;2023-06-22T09:50:19;102407.63;;;24.35;100.00
53262;BME280;39658;51.090;-1.786;2023-06-22T09:52:46;102418.41;;;24.53;100.00
53262;BME280;39658;51.090;-1.786;2023-06-22T09:55:16;102400.81;;;24.77;100.00
53262;BME280;39658;51.090;-1.786;2023-06-22T09:57:43;102390.50;;;24.72;100.00
53262;BME280;39658;51.090;-1.786;2023-06-22T10:00:11;102367.19;;;24.89;100.00
53262;BME280;39658;51.090;-1.786;2023-06-22T10:02:40;102346.78;;;25.31;100.00
53262;BME280;39658;51.090;-1.786;2023-06-22T10:05:07;102139.69;;;25.15;100.00
53262;BME280;39658;51.090;-1.786;2023-06-22T10:07:34;101859.88;;;25.48;100.00
53262;BME280;39658;51.090;-1.786;2023-06-22T10:10:06;101058.19;;;25.25;100.00
53262;BME280;39658;51.090;-1.786;2023-06-22T10:12:32;101002.59;;;25.46;100.00
53262;BME280;39658;51.090;-1.786;2023-06-22T10:14:59;101011.88;;;25.86;100.00
53262;BME280;39658;51.090;-1.786;2023-06-22T10:17:26;101023.66;;;26.00;100.00
53262;BME280;39658;51.090;-1.786;2023-06-22T10:19:54;101025.56;;;26.06;100.00
53262;BME280;39658;51.090;-1.786;2023-06-22T10:22:21;101034.72;;;26.33;100.00
53262;BME280;39658;51.090;-1.786;2023-06-22T10:24:48;101039.31;;;26.75;100.00
53262;BME280;39658;51.090;-1.786;2023-06-22T10:27:14;101025.69;;;26.96;100.00
53262;BME280;39658;51.090;-1.786;2023-06-22T10:29:41;101042.09;;;26.18;100.00
53262;BME280;39658;51.090;-1.786;2023-06-22T10:32:08;101016.22;;;25.37;100.00
53262;BME280;39658;51.090;-1.786;2023-06-22T10:34:35;100997.66;;;25.13;100.00
53262;BME280;39658;51.090;-1.786;2023-06-22T10:37:04;100959.44;;;25.74;100.00
53262;BME280;39658;51.090;-1.786;2023-06-22T10:39:31;100961.69;;;26.27;100.00
53262;BME280;39658;51.090;-1.786;2023-06-22T10:41:57;100957.47;;;25.89;100.00
53262;BME280;39658;51.090;-1.786;2023-06-22T10:44:24;100969.69;;;25.35;100.00
53262;BME280;39658;51.090;-1.786;2023-06-22T10:46:51;100944.38;;;25.36;100.00
53262;BME280;39658;51.090;-1.786;2023-06-22T10:49:18;100938.00;;;24.86;100.00
53262;BME280;39658;51.090;-1.786;2023-06-22T10:51:45;100883.38;;;25.42;100.00
53262;BME280;39658;51.090;-1.786;2023-06-22T10:54:13;100904.78;;;26.00;100.00
53262;BME280;39658;51.090;-1.786;2023-06-22T10:56:42;100943.09;;;26.52;100.00
53262;BME280;39658;51.090;-1.786;2023-06-22T10:59:09;100977.34;;;26.80;100.00
53262;BME280;39658;51.090;-1.786;2023-06-22T11:01:36;100974.13;;;27.18;100.00
53262;BME280;39658;51.090;-1.786;2023-06-22T11:04:03;100964.19;;;27.79;100.00
53262;BME280;39658;51.090;-1.786;2023-06-22T11:06:30;101008.25;;;27.19;100.00
53262;BME280;39658;51.090;-1.786;2023-06-22T11:08:57;100994.41;;;25.60;100.00
53262;BME280;39658;51.090;-1.786;2023-06-22T11:11:26;100960.47;;;24.42;100.00
53262;BME280;39658;51.090;-1.786;2023-06-22T11:13:53;100909.56;;;24.83;100.00
53262;BME280;39658;51.090;-1.786;2023-06-22T11:16:20;100899.38;;;26.00;100.00
53262;BME280;39658;51.090;-1.786;2023-06-22T11:18:46;100936.56;;;26.75;100.00
53262;BME280;39658;51.090;-1.786;2023-06-22T11:21:13;100980.56;;;27.03;100.00
53262;BME280;39658;51.090;-1.786;2023-06-22T11:23:41;100995.34;;;27.14;100.00
53262;BME280;39658;51.090;-1.786;2023-06-22T11:26:09;100979.50;;;26.98;100.00
53262;BME280;39658;51.090;-1.786;2023-06-22T11:28:37;100975.16;;;27.23;100.00
53262;BME280;39658;51.090;-1.786;2023-06-22T11:31:04;100987.13;;;27.49;100.00
53262;BME280;39658;51.090;-1.786;2023-06-22T11:33:32;101000.03;;;27.81;100.00
53262;BME280;39658;51.090;-1.786;2023-06-22T11:35:59;101018.38;;;27.85;100.00
53262;BME280;39658;51.090;-1.786;2023-06-22T11:38:26;101038.81;;;27.61;100.00
53262;BME280;39658;51.090;-1.786;2023-06-22T11:40:53;101022.53;;;27.94;100.00
53262;BME280;39658;51.090;-1.786;2023-06-22T11:43:20;101022.56;;;28.01;100.00
53262;BME280;39658;51.090;-1.786;2023-06-22T11:45:48;101013.78;;;28.26;100.00
53262;BME280;39658;51.090;-1.786;2023-06-22T11:48:16;101011.81;;;28.67;100.00
53262;BME280;39658;51.090;-1.786;2023-06-22T11:50:42;101015.50;;;28.79;100.00
53262;BME280;39658;51.090;-1.786;2023-06-22T11:53:09;101030.25;;;27.91;100.00
53262;BME280;39658;51.090;-1.786;2023-06-22T11:55:36;101009.66;;;26.60;100.00
53262;BME280;39658;51.090;-1.786;2023-06-22T11:58:03;100979.50;;;26.56;100.00
53262;BME280;39658;51.090;-1.786;2023-06-22T12:00:31;100992.66;;;27.21;100.00
53262;BME280;39658;51.090;-1.786;2023-06-22T12:02:59;100980.88;;;27.75;100.00
53262;BME280;39658;51.090;-1.786;2023-06-22T12:05:26;100986.09;;;27.70;100.00
53262;BME280;39658;51.090;-1.786;2023-06-22T12:07:53;100979.81;;;27.97;100.00
53262;BME280;39658;51.090;-1.786;2023-06-22T12:10:20;100984.16;;;28.24;100.00
53262;BME280;39658;51.090;-1.786;2023-06-22T12:12:47;100994.19;;;27.37;100.00
53262;BME280;39658;51.090;-1.786;2023-06-22T12:15:14;100984.59;;;27.54;100.00
53262;BME280;39658;51.090;-1.786;2023-06-22T12:17:41;100971.69;;;28.10;100.00
53262;BME280;39658;51.090;-1.786;2023-06-22T12:20:10;100970.72;;;28.63;100.00
53262;BME280;39658;51.090;-1.786;2023-06-22T12:22:37;100983.63;;;28.68;100.00
53262;BME280;39658;51.090;-1.786;2023-06-22T12:25:04;101001.63;;;29.00;100.00
53262;BME280;39658;51.090;-1.786;2023-06-22T12:27:31;101003.03;;;29.16;100.00
53262;BME280;39658;51.090;-1.786;2023-06-22T12:29:58;101003.31;;;29.40;100.00
53262;BME280;39658;51.090;-1.786;2023-06-22T12:32:25;100994.28;;;29.21;100.00